Time;durP1;ratioP1;P1;durP2;ratioP2;P2;SDS_P1;SDS_P2;PMS_P1;PMS_P2;Temp;Humidity;BMP_temperature;BMP_pressure;BME280_temperature;BME280_humidity;BME280_pressure;Samples;Min_cycle;Max_cycle;Signal;HPM_P1;HPM_P2
2021/11/02 00:01:27;;;;;;;10.75;3.50;;;18.10;73.50;;;;;;5028832;28;20109;-79
2021/11/02 00:03:53;;;;;;;8.13;3.13;;;18.10;73.60;;;;;;5041369;28;20069;-78
2021/11/02 00:06:19;;;;;;;8.00;2.75;;;18.10;73.60;;;;;;5038856;28;20021;-78
2021/11/02 00:08:44;;;;;;;9.23;3.40;;;18.00;73.50;;;;;;5042417;28;20450;-78
2021/11/02 00:11:10;;;;;;;4.80;2.30;;;18.00;73.60;;;;;;5042078;28;20039;-80
2021/11/02 00:13:38;;;;;;;7.10;3.15;;;18.00;73.50;;;;;;5048252;28;20363;-80
2021/11/02 00:16:10;;;;;;;6.05;2.70;;;18.00;73.50;;;;;;5031614;28;20029;-79
2021/11/02 00:18:37;;;;;;;6.45;2.50;;;18.00;73.50;;;;;;5046967;28;20029;-80
2021/11/02 00:21:03;;;;;;;6.60;2.75;;;18.00;73.70;;;;;;5048704;28;20044;-80
2021/11/02 00:23:36;;;;;;;6.93;2.67;;;18.00;73.50;;;;;;5048417;28;20440;-80
2021/11/02 00:26:11;;;;;;;8.02;3.00;;;18.00;73.60;;;;;;5048499;28;20426;-81
2021/11/02 00:28:37;;;;;;;7.32;2.55;;;18.00;73.60;;;;;;5046879;28;20033;-81
2021/11/02 00:31:04;;;;;;;7.30;2.60;;;17.90;73.60;;;;;;5048020;28;20046;-79
2021/11/02 00:33:29;;;;;;;7.22;2.63;;;17.90;73.60;;;;;;5046131;28;20021;-79
2021/11/02 00:35:56;;;;;;;5.75;2.00;;;17.90;73.60;;;;;;5046296;28;20021;-79
2021/11/02 00:38:23;;;;;;;5.90;2.45;;;17.90;73.60;;;;;;5046705;28;20013;-79
2021/11/02 00:40:49;;;;;;;5.13;2.20;;;17.90;73.60;;;;;;5048278;28;20487;-78
2021/11/02 00:43:15;;;;;;;4.93;2.00;;;17.80;73.60;;;;;;5048231;28;20052;-78
2021/11/02 00:45:41;;;;;;;5.40;2.20;;;17.90;73.60;;;;;;5047727;28;20033;-78
2021/11/02 00:48:13;;;;;;;7.28;2.30;;;17.80;73.60;;;;;;5046123;28;20029;-79
2021/11/02 00:50:41;;;;;;;4.05;1.80;;;17.80;73.50;;;;;;5046787;28;20017;-78
2021/11/02 00:53:08;;;;;;;5.43;1.90;;;17.80;73.60;;;;;;5047289;28;20035;-78
2021/11/02 00:55:35;;;;;;;4.55;2.33;;;17.80;73.60;;;;;;5045789;28;20025;-78
2021/11/02 00:58:02;;;;;;;6.07;2.35;;;17.80;73.60;;;;;;5045837;28;20021;-78
2021/11/02 01:00:28;;;;;;;5.75;2.17;;;17.80;73.50;;;;;;5046984;28;20021;-78
2021/11/02 01:02:54;;;;;;;5.35;2.42;;;17.80;73.60;;;;;;5047940;28;20025;-78
2021/11/02 01:05:20;;;;;;;6.47;2.25;;;17.80;73.60;;;;;;5047867;28;20028;-78
2021/11/02 01:07:45;;;;;;;6.00;1.83;;;17.70;73.60;;;;;;5047854;28;20037;-78
2021/11/02 01:10:17;;;;;;;5.47;2.60;;;17.70;73.60;;;;;;5048091;28;20029;-78
2021/11/02 01:12:45;;;;;;;8.10;2.67;;;17.70;73.50;;;;;;5050385;28;20489;-78
2021/11/02 01:15:12;;;;;;;4.75;1.90;;;17.80;73.40;;;;;;5052132;28;20025;-78
2021/11/02 01:17:38;;;;;;;6.07;2.28;;;17.80;73.40;;;;;;5051094;28;20021;-78
2021/11/02 01:20:06;;;;;;;5.03;2.30;;;17.80;73.30;;;;;;5051311;28;20434;-78
2021/11/02 01:22:32;;;;;;;4.25;1.92;;;17.80;73.40;;;;;;5049781;28;20025;-78
2021/11/02 01:24:58;;;;;;;4.38;1.90;;;17.80;73.30;;;;;;5051316;28;20014;-78
2021/11/02 01:27:23;;;;;;;5.63;2.40;;;17.80;73.20;;;;;;5050883;28;20047;-79
2021/11/02 01:29:49;;;;;;;5.57;2.20;;;17.80;73.20;;;;;;5051164;28;20109;-78
2021/11/02 01:32:15;;;;;;;6.75;1.90;;;17.80;73.20;;;;;;5050101;28;20025;-78
2021/11/02 01:34:40;;;;;;;6.20;2.08;;;17.80;73.20;;;;;;5051696;28;20052;-78
2021/11/02 01:37:07;;;;;;;5.40;2.38;;;17.80;73.10;;;;;;5050919;28;20066;-78
2021/11/02 01:39:33;;;;;;;4.20;1.85;;;17.80;73.10;;;;;;5050645;28;20021;-78
2021/11/02 01:42:01;;;;;;;2.95;1.45;;;17.80;73.10;;;;;;5051333;28;20017;-78
2021/11/02 01:44:27;;;;;;;5.75;2.00;;;17.80;73.00;;;;;;5050827;28;20032;-78
2021/11/02 01:46:52;;;;;;;4.10;1.50;;;17.80;73.00;;;;;;5050494;28;20037;-77
2021/11/02 01:49:19;;;;;;;3.97;1.73;;;17.80;72.90;;;;;;5050397;28;20047;-78
2021/11/02 01:51:45;;;;;;;2.88;1.60;;;17.80;72.90;;;;;;5050889;28;20560;-78
2021/11/02 01:54:11;;;;;;;4.15;1.55;;;17.80;72.80;;;;;;5050864;28;20097;-77
2021/11/02 01:56:37;;;;;;;3.55;1.55;;;17.80;72.80;;;;;;5050728;28;20450;-77
2021/11/02 01:59:04;;;;;;;3.22;1.35;;;17.80;72.80;;;;;;5050947;28;20025;-76
2021/11/02 02:01:33;;;;;;;3.20;1.50;;;17.80;72.70;;;;;;5050606;28;20033;-78
2021/11/02 02:04:07;;;;;;;3.78;1.30;;;17.80;72.70;;;;;;5050550;28;20040;-78
2021/11/02 02:06:51;;;;;;;3.40;1.42;;;17.90;72.80;;;;;;5048808;28;20025;-77
2021/11/02 02:09:25;;;;;;;6.50;1.73;;;17.90;72.80;;;;;;5050350;28;20029;-78
2021/11/02 02:12:04;;;;;;;6.47;1.83;;;17.90;72.80;;;;;;5050480;28;20069;-77
2021/11/02 02:14:38;;;;;;;3.63;1.52;;;17.90;72.70;;;;;;5050135;28;20021;-78
2021/11/02 02:17:14;;;;;;;4.95;1.48;;;17.90;72.60;;;;;;5050193;28;20021;-78
2021/11/02 02:19:52;;;;;;;2.50;1.27;;;17.80;72.50;;;;;;5050285;28;20481;-78
2021/11/02 02:22:31;;;;;;;3.45;1.40;;;17.90;72.60;;;;;;5050122;28;20021;-78
2021/11/02 02:25:20;;;;;;;4.70;1.60;;;17.80;72.40;;;;;;5049723;28;20108;-78
2021/11/02 02:28:03;;;;;;;3.55;1.42;;;17.90;72.50;;;;;;5050177;28;20043;-78
2021/11/02 02:30:30;;;;;;;3.88;1.52;;;17.90;72.50;;;;;;5050047;28;20032;-77
2021/11/02 02:32:58;;;;;;;3.70;1.77;;;17.90;72.50;;;;;;5050125;28;20082;-79
2021/11/02 02:35:26;;;;;;;4.38;1.60;;;17.90;72.50;;;;;;5048665;28;20051;-78
2021/11/02 02:37:54;;;;;;;3.50;1.35;;;17.90;72.40;;;;;;5050221;28;20037;-78
2021/11/02 02:40:21;;;;;;;3.28;1.40;;;17.90;72.30;;;;;;5048432;28;20045;-78
2021/11/02 02:42:48;;;;;;;3.17;1.13;;;17.90;72.30;;;;;;5050175;28;20426;-79
2021/11/02 02:45:16;;;;;;;2.95;1.23;;;17.90;72.30;;;;;;5050211;28;20073;-78
2021/11/02 02:47:46;;;;;;;2.65;1.38;;;17.90;72.30;;;;;;5050121;28;20567;-79
2021/11/02 02:50:13;;;;;;;3.65;1.60;;;18.00;72.30;;;;;;5050342;28;20408;-79
2021/11/02 02:52:42;;;;;;;3.65;1.42;;;17.90;72.20;;;;;;5049528;28;20092;-79
2021/11/02 02:55:10;;;;;;;2.83;1.20;;;17.90;72.20;;;;;;5049888;28;20014;-79
2021/11/02 02:57:37;;;;;;;3.80;1.70;;;18.00;72.10;;;;;;5048472;27;20425;-78
2021/11/02 03:00:04;;;;;;;4.32;1.98;;;18.00;72.10;;;;;;5049579;28;20017;-80
2021/11/02 03:02:32;;;;;;;3.28;1.38;;;18.00;72.10;;;;;;5049664;28;20405;-81
2021/11/02 03:05:00;;;;;;;3.65;1.45;;;18.00;72.00;;;;;;5049781;28;20017;-78
2021/11/02 03:07:26;;;;;;;2.50;1.30;;;18.00;72.00;;;;;;5049383;28;20039;-80
2021/11/02 03:09:52;;;;;;;5.70;2.03;;;18.00;72.00;;;;;;5049688;28;20029;-79
2021/11/02 03:12:30;;;;;;;4.70;1.42;;;18.00;72.00;;;;;;5049532;28;20493;-78
2021/11/02 03:17:48;;;;;;;2.72;1.63;;;18.00;71.90;;;;;;5049337;28;20025;-77
2021/11/02 03:59:10;;;;;;;3.33;1.50;;;18.10;71.60;;;;;;5048619;28;19905;-77
2021/11/02 04:01:59;;;;;;;3.03;1.38;;;18.10;71.60;;;;;;5048562;28;20052;-78
2021/11/02 05:46:56;;;;;;;1.27;0.80;;;18.20;71.00;;;;;;5047404;28;20109;-78
2021/11/02 05:54:53;;;;;;;1.65;0.75;;;18.20;71.30;;;;;;5047292;28;20089;-76
2021/11/02 05:59:56;;;;;;;2.65;0.82;;;18.20;71.00;;;;;;5049797;28;20112;-78
2021/11/02 06:05:25;;;;;;;0.98;0.60;;;18.20;71.10;;;;;;5050864;28;20050;-77
2021/11/02 06:28:43;;;;;;;1.83;0.85;;;18.10;71.00;;;;;;5050291;28;20048;-78
2021/11/02 06:31:19;;;;;;;2.22;0.73;;;18.10;71.00;;;;;;5050309;28;20053;-77
2021/11/02 06:47:37;;;;;;;2.33;0.63;;;18.00;70.90;;;;;;5050142;28;20113;-77
2021/11/02 07:15:31;;;;;;;1.38;0.60;;;17.80;71.30;;;;;;5049367;28;20073;-77
2021/11/02 07:18:14;;;;;;;3.30;0.80;;;17.80;71.30;;;;;;5049775;28;20029;-78
2021/11/02 08:48:04;;;;;;;3.22;0.70;;;18.50;72.10;;;;;;5047925;28;20084;-76
2021/11/02 08:50:12;;;;;;;1.42;0.50;;;18.60;72.20;;;;;;5045219;28;20037;-75
2021/11/02 08:52:40;;;;;;;2.13;0.70;;;18.60;72.00;;;;;;5047708;28;20549;-75
2021/11/02 08:55:08;;;;;;;1.65;0.70;;;18.60;71.80;;;;;;5047876;28;20043;-75
2021/11/02 08:57:34;;;;;;;1.50;0.95;;;18.70;72.00;;;;;;5047798;28;20078;-76
2021/11/02 09:00:00;;;;;;;2.28;0.60;;;18.80;71.80;;;;;;5047908;28;20029;-75
2021/11/02 09:02:30;;;;;;;1.27;0.55;;;18.70;71.70;;;;;;5047851;28;20033;-75
2021/11/02 09:05:08;;;;;;;1.90;0.70;;;18.80;71.70;;;;;;5047875;28;20036;-77
2021/11/02 09:07:38;;;;;;;1.33;0.50;;;18.90;71.50;;;;;;5047482;28;20075;-76
2021/11/02 09:10:18;;;;;;;3.20;0.60;;;18.90;71.20;;;;;;5047987;28;20366;-77
2021/11/02 09:12:53;;;;;;;4.18;0.70;;;19.00;71.00;;;;;;5048377;28;20017;-77
2021/11/02 09:15:38;;;;;;;7.25;0.85;;;19.00;71.40;;;;;;5047706;28;20035;-78
2021/11/02 09:18:09;;;;;;;1.38;0.70;;;19.00;71.50;;;;;;5047728;28;20415;-78
2021/11/02 09:20:36;;;;;;;1.30;0.65;;;19.10;71.50;;;;;;5047589;28;20021;-77
2021/11/02 09:23:03;;;;;;;2.97;0.60;;;19.10;71.30;;;;;;5047746;28;20026;-77
2021/11/02 09:25:29;;;;;;;3.72;0.52;;;19.10;71.00;;;;;;5047660;28;20028;-77
2021/11/02 09:27:55;;;;;;;2.20;0.77;;;19.10;70.70;;;;;;5047479;28;20041;-77
2021/11/02 09:30:22;;;;;;;3.53;0.75;;;19.30;70.60;;;;;;5047321;28;20515;-78
2021/11/02 09:32:54;;;;;;;2.22;0.77;;;19.30;70.60;;;;;;5049017;28;20036;-78
2021/11/02 09:35:23;;;;;;;2.45;0.70;;;19.40;70.40;;;;;;5050293;28;20092;-78
2021/11/02 09:38:01;;;;;;;1.85;1.00;;;19.50;70.20;;;;;;5040340;28;20431;-77
2021/11/02 09:40:30;;;;;;;4.00;1.10;;;19.60;70.20;;;;;;5046740;28;20040;-77
2021/11/02 09:43:22;;;;;;;7.45;0.90;;;19.70;70.10;;;;;;5035975;28;20037;-77
2021/11/02 09:46:26;;;;;;;6.38;0.70;;;19.80;70.00;;;;;;5031255;28;20114;-79
2021/11/02 09:49:43;;;;;;;3.38;0.70;;;19.80;69.70;;;;;;5045416;28;20033;-77
2021/11/02 09:52:27;;;;;;;5.88;0.60;;;19.90;69.50;;;;;;5059690;28;20330;-76
2021/11/02 09:55:37;;;;;;;4.68;0.63;;;20.10;69.30;;;;;;5058558;27;20036;-77
2021/11/02 09:58:39;;;;;;;2.97;0.60;;;20.20;69.30;;;;;;5070561;28;20037;-79
2021/11/02 10:01:11;;;;;;;6.97;0.95;;;20.30;69.30;;;;;;5072062;28;20032;-75
2021/11/02 10:03:43;;;;;;;2.20;0.70;;;20.40;69.10;;;;;;5038830;28;20497;-77
2021/11/02 10:06:15;;;;;;;5.45;0.93;;;20.50;68.80;;;;;;5041608;27;20039;-77
2021/11/02 10:08:53;;;;;;;3.72;0.70;;;20.60;68.90;;;;;;5068033;27;20035;-79
2021/11/02 10:11:51;;;;;;;2.25;0.70;;;20.70;68.70;;;;;;5134642;27;20023;-75
2021/11/02 10:15:02;;;;;;;1.80;0.70;;;20.80;68.80;;;;;;5059214;27;20018;-76
2021/11/02 10:17:54;;;;;;;3.15;0.82;;;20.90;68.40;;;;;;5045406;28;20026;-77
2021/11/02 10:20:50;;;;;;;2.25;0.70;;;21.00;67.90;;;;;;5041969;28;20105;-78
2021/11/02 10:23:19;;;;;;;;;;;21.10;67.60;;;;;;5041037;28;20148;-75
2021/11/02 10:26:06;;;;;;;3.42;0.70;;;21.30;67.50;;;;;;5050692;28;19909;-78
2021/11/02 10:28:48;;;;;;;1.48;0.63;;;21.40;67.20;;;;;;5049429;28;20051;-78
2021/11/02 10:31:33;;;;;;;4.40;0.85;;;21.50;66.50;;;;;;5048711;28;20029;-78
2021/11/02 10:34:22;;;;;;;3.00;0.60;;;21.60;67.00;;;;;;5055077;27;20036;-77
2021/11/02 10:37:05;;;;;;;5.57;0.70;;;21.60;66.90;;;;;;5048882;28;20040;-77
2021/11/02 10:39:36;;;;;;;3.05;0.55;;;21.80;66.80;;;;;;5048824;28;20054;-77
2021/11/02 10:42:08;;;;;;;2.08;0.50;;;21.90;66.50;;;;;;5119919;27;20039;-77
2021/11/02 10:44:40;;;;;;;3.80;0.80;;;22.00;66.30;;;;;;5060746;27;20086;-78
2021/11/02 10:47:16;;;;;;;5.32;0.60;;;22.10;65.80;;;;;;5117740;27;20040;-78
2021/11/02 10:50:01;;;;;;;2.92;0.50;;;22.10;65.80;;;;;;5046825;28;20501;-80
2021/11/02 10:52:28;;;;;;;2.63;0.60;;;22.00;65.80;;;;;;5049415;28;20102;-83
2021/11/02 10:55:33;;;;;;;3.25;0.63;;;21.80;66.20;;;;;;5049809;28;20063;-80
2021/11/02 10:58:17;;;;;;;4.20;0.70;;;21.70;66.30;;;;;;5029969;28;20060;-83
2021/11/02 11:00:46;;;;;;;3.13;0.68;;;21.60;66.70;;;;;;5033327;28;20508;-80
2021/11/02 11:03:13;;;;;;;2.80;0.60;;;21.60;67.00;;;;;;5032957;28;20056;-80
2021/11/02 11:05:44;;;;;;;5.88;0.82;;;21.60;67.50;;;;;;5032089;28;20029;-77
2021/11/02 11:08:15;;;;;;;5.22;1.05;;;21.60;67.40;;;;;;5029143;28;20493;-77
2021/11/02 11:10:43;;;;;;;4.70;1.13;;;21.60;68.10;;;;;;5047032;28;20044;-81
2021/11/02 11:13:11;;;;;;;4.88;1.45;;;21.50;68.60;;;;;;5032502;28;20013;-79
2021/11/02 11:15:40;;;;;;;3.30;1.40;;;21.60;69.30;;;;;;5041542;28;20120;-80
2021/11/02 11:18:08;;;;;;;4.53;1.42;;;21.60;69.90;;;;;;5035116;28;20033;-79
2021/11/02 11:20:39;;;;;;;4.57;1.10;;;21.50;69.40;;;;;;5044017;28;20460;-78
2021/11/02 11:23:09;;;;;;;5.25;1.10;;;21.50;69.70;;;;;;5032407;28;20691;-80
2021/11/02 11:25:45;;;;;;;2.97;0.90;;;21.70;70.20;;;;;;5048363;28;20036;-81
2021/11/02 11:28:14;;;;;;;;;;;21.80;69.70;;;;;;5037509;28;20033;-81
2021/11/02 11:30:41;;;;;;;5.75;1.13;;;21.80;70.00;;;;;;5044672;28;20371;-80
2021/11/02 11:33:15;;;;;;;6.53;1.13;;;22.40;68.60;;;;;;5045500;28;20109;-81
2021/11/02 11:35:42;;;;;;;6.95;1.08;;;23.30;68.30;;;;;;5037220;28;20116;-80
2021/11/02 11:38:11;;;;;;;5.38;1.25;;;24.40;64.30;;;;;;5037179;28;20036;-79
2021/11/02 11:40:38;;;;;;;3.08;1.45;;;26.40;59.50;;;;;;5032519;28;20179;-80
2021/11/02 11:43:08;;;;;;;5.18;1.40;;;26.60;57.50;;;;;;5043840;28;20036;-81
2021/11/02 11:45:39;;;;;;;5.43;1.55;;;27.50;56.50;;;;;;5035296;28;20524;-79
2021/11/02 11:48:05;;;;;;;4.30;1.10;;;28.90;53.90;;;;;;5037329;28;20042;-78
2021/11/02 11:50:32;;;;;;;2.22;1.05;;;28.80;53.50;;;;;;5037819;28;20082;-79
2021/11/02 11:53:02;;;;;;;3.17;1.00;;;26.80;54.30;;;;;;5043955;28;20081;-80
2021/11/02 11:55:31;;;;;;;2.47;1.23;;;27.70;55.60;;;;;;5041838;28;20033;-79
2021/11/02 11:58:15;;;;;;;3.85;1.00;;;29.00;52.40;;;;;;5035172;28;20021;-78
2021/11/02 12:00:52;;;;;;;2.28;0.82;;;30.20;50.40;;;;;;5045211;28;20085;-78
2021/11/02 12:03:40;;;;;;;8.23;1.20;;;29.60;49.00;;;;;;5032946;28;20013;-78
2021/11/02 12:06:28;;;;;;;3.35;0.90;;;27.50;52.30;;;;;;5037073;28;20851;-77
2021/11/02 12:09:05;;;;;;;3.10;1.10;;;29.60;50.80;;;;;;5043986;28;20025;-78
2021/11/02 12:11:32;;;;;;;3.17;1.20;;;30.70;48.70;;;;;;5034486;28;20111;-78
2021/11/02 12:14:09;;;;;;;4.35;0.85;;;31.50;47.10;;;;;;5038028;28;20380;-78
2021/11/02 12:16:43;;;;;;;3.05;0.70;;;31.80;46.10;;;;;;5043366;28;20560;-78
2021/11/02 12:19:23;;;;;;;2.72;0.95;;;29.70;47.50;;;;;;5031476;28;20101;-78
2021/11/02 12:22:01;;;;;;;3.17;0.90;;;30.10;48.70;;;;;;5039243;28;20022;-78
2021/11/02 12:24:32;;;;;;;5.47;1.08;;;31.20;46.70;;;;;;5041562;28;20043;-78
2021/11/02 12:27:16;;;;;;;5.82;0.80;;;31.50;45.90;;;;;;5031467;28;20018;-77
2021/11/02 12:29:44;;;;;;;4.25;1.02;;;31.90;45.50;;;;;;5039091;28;20501;-78
2021/11/02 12:32:12;;;;;;;3.17;0.82;;;30.80;45.30;;;;;;5039849;28;20063;-77
2021/11/02 12:34:43;;;;;;;3.78;0.90;;;28.90;49.00;;;;;;5045958;28;20757;-76
2021/11/02 12:37:11;;;;;;;5.13;1.00;;;27.50;50.20;;;;;;5042953;28;20074;-76
2021/11/02 12:39:37;;;;;;;1.85;0.63;;;26.40;52.80;;;;;;5036404;28;20033;-78
2021/11/02 12:42:04;;;;;;;3.78;0.90;;;26.20;54.50;;;;;;5037415;28;20477;-79
2021/11/02 12:44:32;;;;;;;10.15;1.25;;;28.40;51.90;;;;;;5032893;28;20112;-79
2021/11/02 12:47:00;;;;;;;3.05;0.77;;;27.70;50.20;;;;;;5045568;28;20032;-82
2021/11/02 12:49:52;;;;;;;4.90;0.95;;;28.70;50.70;;;;;;5040119;28;20033;-80
2021/11/02 12:52:23;;;;;;;1.65;0.60;;;29.40;49.30;;;;;;5040616;28;20362;-81
2021/11/02 12:55:10;;;;;;;10.05;0.82;;;29.60;49.50;;;;;;5046441;28;20105;-79
2021/11/02 12:57:47;;;;;;;2.80;0.88;;;28.60;49.10;;;;;;5034480;28;20040;-82
2021/11/02 13:00:19;;;;;;;5.25;0.65;;;26.80;51.30;;;;;;5034802;28;20076;-79
2021/11/02 13:02:51;;;;;;;3.75;0.65;;;25.50;53.70;;;;;;5044423;28;20031;-79
2021/11/02 13:05:23;;;;;;;3.55;0.60;;;25.00;54.90;;;;;;5031740;28;20058;-80
2021/11/02 13:08:02;;;;;;;2.97;0.63;;;24.60;56.00;;;;;;5039606;28;20393;-80
2021/11/02 13:10:32;;;;;;;7.93;1.02;;;24.30;56.60;;;;;;5048807;28;20032;-79
2021/11/02 13:13:10;;;;;;;7.50;1.50;;;24.20;57.00;;;;;;5034359;28;20021;-80
2021/11/02 13:15:53;;;;;;;5.15;1.08;;;24.00;58.10;;;;;;5041995;28;20580;-81
2021/11/02 13:18:38;;;;;;;5.28;1.10;;;23.80;58.30;;;;;;5038271;28;20442;-82
2021/11/02 13:21:19;;;;;;;7.05;1.33;;;23.60;58.90;;;;;;5042603;28;20028;-82
2021/11/02 13:23:51;;;;;;;4.18;1.70;;;23.50;59.10;;;;;;5038698;28;20463;-81
2021/11/02 13:26:19;;;;;;;6.15;1.10;;;23.30;59.40;;;;;;5047453;28;20018;-81
2021/11/02 13:28:45;;;;;;;3.60;1.00;;;23.10;59.80;;;;;;5048952;27;20122;-80
2021/11/02 13:31:34;;;;;;;6.28;1.65;;;23.00;60.20;;;;;;5038656;28;20028;-81
2021/11/02 13:34:06;;;;;;;7.53;1.20;;;22.90;60.50;;;;;;5044574;28;20060;-82
2021/11/02 13:36:32;;;;;;;5.20;1.10;;;22.80;61.90;;;;;;5040674;28;20017;-82
2021/11/02 13:39:03;;;;;;;6.05;1.20;;;22.70;61.30;;;;;;5042139;27;20412;-80
2021/11/02 13:41:31;;;;;;;7.95;0.90;;;22.70;61.60;;;;;;5036424;28;20101;-81
2021/11/02 13:44:04;;;;;;;3.40;0.90;;;22.60;61.90;;;;;;5040409;28;20166;-82
2021/11/02 13:46:51;;;;;;;2.45;0.80;;;22.60;62.10;;;;;;5044729;28;20048;-82
2021/11/02 13:49:18;;;;;;;4.95;0.82;;;22.60;62.40;;;;;;5034287;28;20097;-79
2021/11/02 13:51:44;;;;;;;6.05;1.23;;;22.60;62.30;;;;;;5042408;28;20083;-81
2021/11/02 13:54:11;;;;;;;3.55;0.90;;;22.50;62.00;;;;;;5041151;28;20108;-80
2021/11/02 13:56:45;;;;;;;4.72;0.90;;;22.60;62.00;;;;;;5039327;28;20081;-79
2021/11/02 13:59:12;;;;;;;4.22;1.15;;;;;;;;;;5040637;28;20017;-80
2021/11/02 14:01:38;;;;;;;3.47;0.85;;;;;;;;;;5042471;28;20533;-80
2021/11/02 14:04:06;;;;;;;3.55;1.10;;;;;;;;;;5039863;28;20481;-79
2021/11/02 14:06:37;;;;;;;2.55;0.82;;;;;;;;;;5040054;28;20029;-82
2021/11/02 14:09:04;;;;;;;4.80;1.35;;;;;;;;;;5045479;28;20055;-81
2021/11/02 14:11:32;;;;;;;2.80;0.63;;;;;;;;;;5034219;28;20036;-81
2021/11/02 14:13:58;;;;;;;2.60;0.50;;;;;;;;;;5037133;28;20044;-80
2021/11/02 14:16:40;;;;;;;3.05;0.85;;;;;;;;;;5043606;28;20029;-81
2021/11/02 14:19:27;;;;;;;3.55;0.60;;;;;;;;;;5031086;28;20023;-80
2021/11/02 14:21:53;;;;;;;2.75;0.70;;;;;;;;;;5040033;28;20033;-79
2021/11/02 14:24:29;;;;;;;3.03;0.95;;;;;;;;;;5042390;28;20025;-80
2021/11/02 14:26:55;;;;;;;1.45;0.60;;;;;;;;;;5032668;28;20039;-79
2021/11/02 14:29:41;;;;;;;3.28;0.90;;;;;;;;;;5045153;28;20044;-79
2021/11/02 14:32:07;;;;;;;;;;;;;;;;;;5041909;28;20028;-80
2021/11/02 14:34:39;;;;;;;2.08;0.55;;;;;;;;;;5037308;28;19908;-79
2021/11/02 14:37:11;;;;;;;4.20;0.93;;;;;;;;;;5044828;27;20405;-81
2021/11/02 14:39:56;;;;;;;1.75;0.57;;;;;;;;;;5040296;28;20113;-79
2021/11/02 14:42:42;;;;;;;1.90;0.80;;;;;;;;;;5038725;28;20029;-81
2021/11/02 14:45:10;;;;;;;2.15;0.68;;;;;;;;;;5038733;28;20033;-80
2021/11/02 14:47:36;;;;;;;2.20;0.60;;;;;;;;;;5040568;28;20566;-79
2021/11/02 14:50:03;;;;;;;3.45;0.93;;;;;;;;;;5037665;28;20048;-80
2021/11/02 14:52:34;;;;;;;2.70;0.85;;;;;;;;;;5039837;28;20052;-80
2021/11/02 14:55:00;;;;;;;3.53;0.77;;;;;;;;;;5036872;28;20081;-79
2021/11/02 14:57:27;;;;;;;2.28;0.60;;;;;;;;;;5038224;28;20592;-77
2021/11/02 15:00:04;;;;;;;3.90;0.70;;;;;;;;;;5041462;28;20021;-79
2021/11/02 15:02:56;;;;;;;2.25;0.70;;;;;;;;;;5039854;28;20014;-80
2021/11/02 15:05:23;;;;;;;2.33;0.80;;;;;;;;;;5036555;28;20409;-79
2021/11/02 15:07:51;;;;;;;2.38;0.80;;;;;;;;;;5039492;28;20031;-79
2021/11/02 15:10:18;;;;;;;2.33;0.70;;;;;;;;;;5036556;28;20029;-80
2021/11/02 15:12:45;;;;;;;2.65;0.80;;;;;;;;;;5028184;28;20423;-79
2021/11/02 15:15:11;;;;;;;4.35;0.73;;;;;;;;;;5049002;28;20090;-79
2021/11/02 15:17:37;;;;;;;2.63;0.60;;;;;;;;;;5040667;28;20037;-80
2021/11/02 15:20:03;;;;;;;3.65;0.70;;;;;;;;;;5039168;28;20029;-79
2021/11/02 15:22:30;;;;;;;2.85;0.70;;;;;;;;;;5039190;28;20032;-81
2021/11/02 15:24:58;;;;;;;2.05;0.60;;;;;;;;;;5037592;28;20547;-79
2021/11/02 15:27:28;;;;;;;1.45;0.50;;;;;;;;;;5037439;28;20071;-78
2021/11/02 15:29:58;;;;;;;0.98;0.47;;;;;;;;;;5041070;28;20028;-82
2021/11/02 15:32:25;;;;;;;2.85;0.50;;;;;;;;;;5034571;28;20033;-81
2021/11/02 15:34:51;;;;;;;3.33;0.57;;;;;;;;;;5040402;28;20863;-81
2021/11/02 15:37:25;;;;;;;3.30;0.80;;;22.00;63.20;;;;;;5043366;28;20029;-84
2021/11/02 15:39:55;;;;;;;3.25;0.88;;;21.90;63.90;;;;;;5038949;28;20024;-84
2021/11/02 15:42:26;;;;;;;4.50;0.60;;;21.90;63.80;;;;;;5048458;28;20120;-84
2021/11/02 15:44:57;;;;;;;2.42;0.50;;;21.80;64.00;;;;;;5031985;28;20021;-84
2021/11/02 15:47:28;;;;;;;2.63;0.60;;;21.80;64.30;;;;;;5044648;28;20468;-83
2021/11/02 15:50:02;;;;;;;3.08;0.90;;;21.70;64.00;;;;;;5032491;28;20017;-80
2021/11/02 15:52:31;;;;;;;3.87;0.80;;;21.70;63.70;;;;;;5033557;28;20442;-81
2021/11/02 15:55:02;;;;;;;2.25;0.60;;;21.60;63.70;;;;;;5035290;28;20033;-82
2021/11/02 15:57:28;;;;;;;3.00;0.57;;;21.50;63.80;;;;;;5037440;28;20394;-79
2021/11/02 16:00:05;;;;;;;2.00;0.68;;;21.40;64.20;;;;;;5038379;28;20097;-81
2021/11/02 16:02:39;;;;;;;3.90;0.60;;;21.40;64.60;;;;;;5033405;28;20049;-78
2021/11/02 16:05:07;;;;;;;3.17;0.73;;;21.30;64.90;;;;;;5034105;28;20425;-76
2021/11/02 16:07:33;;;;;;;3.50;0.50;;;21.20;65.00;;;;;;5041996;27;20052;-79
2021/11/02 16:09:59;;;;;;;2.45;0.60;;;21.20;65.20;;;;;;5036591;28;20509;-78
2021/11/02 16:12:31;;;;;;;2.63;0.50;;;21.10;65.40;;;;;;5033193;28;20036;-77
2021/11/02 16:15:06;;;;;;;2.05;0.60;;;21.10;65.60;;;;;;5044649;28;20064;-78
2021/11/02 16:17:45;;;;;;;1.70;0.57;;;21.00;65.80;;;;;;5034515;28;20065;-77
2021/11/02 16:20:37;;;;;;;2.50;0.50;;;20.90;66.00;;;;;;5035860;28;20108;-77
2021/11/02 16:23:14;;;;;;;2.08;0.70;;;20.90;66.10;;;;;;5033395;28;20393;-78
2021/11/02 16:25:42;;;;;;;1.92;0.70;;;20.80;65.80;;;;;;5039772;28;20033;-77
2021/11/02 16:28:13;;;;;;;1.73;0.55;;;20.70;65.80;;;;;;5036105;28;20065;-77
2021/11/02 16:30:43;;;;;;;4.05;0.70;;;20.70;65.90;;;;;;5040015;28;20096;-78
2021/11/02 16:33:10;;;;;;;2.47;0.60;;;20.60;65.90;;;;;;5032434;28;20021;-77
2021/11/02 16:35:45;;;;;;;3.63;0.70;;;20.60;66.40;;;;;;5043186;28;20120;-77
2021/11/02 16:38:26;;;;;;;1.60;0.40;;;20.50;66.30;;;;;;5031435;28;20565;-78
2021/11/02 16:41:05;;;;;;;0.98;0.40;;;20.50;66.40;;;;;;5043738;28;20117;-78
2021/11/02 16:43:35;;;;;;;4.35;0.52;;;20.40;67.50;;;;;;5033208;28;20104;-78
2021/11/02 16:46:10;;;;;;;2.85;0.60;;;20.40;66.70;;;;;;5037124;28;20052;-78
2021/11/02 16:48:45;;;;;;;1.93;0.40;;;20.30;66.70;;;;;;5042040;28;20200;-80
2021/11/02 16:51:14;;;;;;;4.50;0.60;;;20.30;67.00;;;;;;5037229;28;20802;-78
2021/11/02 16:53:39;;;;;;;1.45;0.50;;;20.30;66.90;;;;;;5040114;28;20022;-79
2021/11/02 16:56:20;;;;;;;1.67;0.47;;;20.20;66.90;;;;;;5036667;28;20381;-79
2021/11/02 16:58:48;;;;;;;2.58;0.55;;;20.20;67.10;;;;;;5041712;28;20020;-79
2021/11/02 17:01:25;;;;;;;1.50;0.60;;;20.20;67.20;;;;;;5031738;28;20029;-77
2021/11/02 17:03:52;;;;;;;3.10;0.70;;;20.20;67.50;;;;;;5040480;28;20100;-78
2021/11/02 17:06:28;;;;;;;1.67;0.70;;;20.20;67.60;;;;;;5033784;28;20033;-78
2021/11/02 17:09:02;;;;;;;1.85;0.45;;;20.10;67.80;;;;;;5044101;28;20125;-78
2021/11/02 17:11:29;;;;;;;0.98;0.45;;;20.10;68.10;;;;;;5046761;28;20041;-79
2021/11/02 17:13:56;;;;;;;1.52;0.50;;;20.10;68.20;;;;;;5037823;28;20030;-77
2021/11/02 17:16:26;;;;;;;3.58;0.80;;;20.10;68.30;;;;;;5035104;28;20029;-79
2021/11/02 17:18:59;;;;;;;1.58;0.50;;;20.10;68.40;;;;;;5037321;28;20075;-79
2021/11/02 17:21:32;;;;;;;1.42;0.50;;;20.00;68.40;;;;;;5039144;28;20029;-79
2021/11/02 17:23:59;;;;;;;2.60;0.70;;;20.00;68.30;;;;;;5046693;28;20021;-81
2021/11/02 17:26:26;;;;;;;2.08;0.77;;;20.00;68.60;;;;;;5034437;28;20108;-80
2021/11/02 17:28:53;;;;;;;1.63;0.90;;;20.10;68.30;;;;;;5042304;28;20802;-80
2021/11/02 17:31:26;;;;;;;2.25;0.85;;;20.10;68.20;;;;;;5039310;28;20033;-79
2021/11/02 17:33:58;;;;;;;6.80;0.90;;;20.20;68.50;;;;;;5038516;28;20512;-78
2021/11/02 17:36:24;;;;;;;5.00;0.95;;;20.20;68.70;;;;;;5033136;28;20063;-81
2021/11/02 17:38:52;;;;;;;3.15;0.82;;;20.20;68.80;;;;;;5029124;28;20040;-80
2021/11/02 17:41:19;;;;;;;3.47;0.90;;;20.20;68.80;;;;;;5035836;28;20018;-80
2021/11/02 17:43:47;;;;;;;1.73;0.73;;;20.30;68.70;;;;;;5039317;28;20524;-80
2021/11/02 17:46:14;;;;;;;3.58;0.70;;;20.30;68.70;;;;;;5036009;28;20024;-82
2021/11/02 17:48:41;;;;;;;2.33;0.80;;;20.30;68.60;;;;;;5035336;28;20039;-81
2021/11/02 17:51:07;;;;;;;4.78;0.98;;;20.30;68.60;;;;;;5042656;28;20021;-83
2021/11/02 17:53:34;;;;;;;4.07;0.88;;;20.40;68.70;;;;;;5044102;28;20077;-83
2021/11/02 17:56:02;;;;;;;3.60;1.10;;;20.40;68.40;;;;;;5039047;28;20025;-82
2021/11/02 17:58:28;;;;;;;1.77;0.60;;;20.40;68.40;;;;;;5044139;28;20033;-83
2021/11/02 18:00:55;;;;;;;2.05;0.90;;;20.50;68.70;;;;;;5048777;28;20499;-86
2021/11/02 18:03:22;;;;;;;4.28;0.98;;;20.50;69.00;;;;;;5037138;28;20028;-80
2021/11/02 18:05:59;;;;;;;4.18;0.77;;;20.50;68.90;;;;;;5042189;28;20078;-81
2021/11/02 18:08:24;;;;;;;1.20;0.60;;;20.60;69.10;;;;;;5043667;28;20033;-79
2021/11/02 18:10:50;;;;;;;3.67;0.75;;;20.60;69.00;;;;;;5045557;28;20025;-79
2021/11/02 18:13:18;;;;;;;2.90;0.75;;;20.60;68.70;;;;;;5035924;28;20113;-78
2021/11/02 18:15:45;;;;;;;1.70;0.70;;;20.60;68.70;;;;;;5042364;28;20081;-78
2021/11/02 18:18:11;;;;;;;2.08;0.75;;;20.60;68.70;;;;;;5038703;28;20030;-80
2021/11/02 18:20:38;;;;;;;2.50;0.90;;;20.70;68.40;;;;;;5037934;28;20469;-79
2021/11/02 18:23:05;;;;;;;2.33;0.93;;;20.70;68.50;;;;;;5039736;28;20029;-79
2021/11/02 18:25:31;;;;;;;1.83;0.80;;;20.70;68.60;;;;;;5040224;28;20014;-79
2021/11/02 18:27:57;;;;;;;2.78;0.88;;;20.80;68.70;;;;;;5041414;28;20112;-78